Time;durP1;ratioP1;P1;durP2;ratioP2;P2;SDS_P1;SDS_P2;PMS_P1;PMS_P2;Temp;Humidity;BMP_temperature;BMP_pressure;BME280_temperature;BME280_humidity;BME280_pressure;Samples;Min_cycle;Max_cycle;Signal;HPM_P1;HPM_P2
2022/11/05 00:17:16;;;;;;;8.13;4.47;;;8.70;99.90;;;9.46;100.00;97947.72;5019523;28;20457;-79
2022/11/05 00:19:44;;;;;;;12.10;5.07;;;8.80;99.90;;;9.44;100.00;97962.75;5019735;28;20486;-79
2022/11/05 00:25:15;;;;;;;8.27;4.70;;;8.80;99.90;;;9.45;100.00;97964.38;5018964;28;20895;-78
2022/11/05 00:27:50;;;;;;;9.20;4.30;;;8.80;99.90;;;9.48;100.00;97964.00;5015709;28;20590;-79
2022/11/05 00:30:22;;;;;;;6.90;3.40;;;8.90;99.90;;;9.49;100.00;97965.63;5017318;28;21316;-79
2022/11/05 00:32:52;;;;;;;4.60;2.50;;;8.90;99.90;;;9.45;100.00;97966.97;5017796;28;20494;-79
2022/11/05 00:35:22;;;;;;;5.30;2.80;;;8.90;99.90;;;9.39;100.00;97972.94;5018594;28;20456;-79
2022/11/05 00:37:54;;;;;;;3.93;2.07;;;9.00;99.90;;;9.32;100.00;97966.00;5020582;28;20552;-79
2022/11/05 00:40:22;;;;;;;3.50;2.47;;;8.80;99.90;;;9.29;100.00;97967.19;5018584;28;21241;-79
2022/11/05 00:45:52;;;;;;;3.57;2.43;;;8.90;99.90;;;9.29;100.00;97980.22;4977302;28;20473;-79
2022/11/05 00:51:09;;;;;;;4.23;2.20;;;8.80;99.90;;;9.24;100.00;97990.38;5001099;28;20532;-79
2022/11/05 00:53:37;;;;;;;5.87;2.43;;;8.80;99.90;;;9.18;100.00;97985.06;5017863;28;20933;-79
2022/11/05 00:56:07;;;;;;;5.60;2.30;;;8.70;99.90;;;9.17;100.00;97992.09;5018578;28;20527;-79
2022/11/05 00:58:37;;;;;;;2.80;2.33;;;8.70;99.90;;;9.15;100.00;97995.88;5016339;28;20575;-79
2022/11/05 01:01:06;;;;;;;2.30;2.10;;;8.70;99.90;;;9.09;100.00;98003.41;5017566;28;20593;-79
2022/11/05 01:03:37;;;;;;;3.20;1.93;;;8.60;99.90;;;9.09;100.00;98002.63;5017818;28;20506;-79
2022/11/05 01:06:13;;;;;;;7.00;2.20;;;8.60;99.90;;;9.09;100.00;98013.84;5019300;28;20609;-79
2022/11/05 01:08:44;;;;;;;2.73;2.20;;;8.60;99.90;;;9.05;100.00;98011.78;5016519;28;20490;-79
2022/11/05 01:11:31;;;;;;;3.90;2.03;;;8.60;99.90;;;9.05;100.00;98012.59;5017904;28;20462;-79
2022/11/05 01:14:06;;;;;;;3.70;2.07;;;8.50;99.90;;;9.09;100.00;98018.28;5014922;28;20818;-79
2022/11/05 01:16:36;;;;;;;3.40;1.87;;;8.60;99.90;;;9.09;100.00;98024.28;5016209;28;20973;-79
2022/11/05 01:19:08;;;;;;;2.83;2.07;;;8.60;99.90;;;9.09;100.00;98023.50;5017474;28;21055;-78
2022/11/05 01:21:36;;;;;;;1.53;1.43;;;8.50;99.90;;;9.05;100.00;98030.84;5016563;28;20578;-79
2022/11/05 01:24:06;;;;;;;4.37;1.80;;;8.50;99.90;;;9.06;100.00;98031.66;5015496;28;20494;-79
2022/11/05 01:26:34;;;;;;;3.40;1.80;;;8.50;99.90;;;9.08;100.00;98038.31;5016159;28;20503;-79
2022/11/05 01:29:05;;;;;;;2.90;1.77;;;8.40;99.90;;;9.07;100.00;98033.28;5015536;28;20533;-79
2022/11/05 01:31:34;;;;;;;12.97;2.30;;;8.40;99.90;;;9.07;100.00;98041.91;5019492;28;20537;-79
2022/11/05 01:34:03;;;;;;;2.20;1.70;;;8.40;99.90;;;9.05;100.00;98035.25;5019222;28;20465;-79
2022/11/05 01:36:31;;;;;;;4.67;1.77;;;8.30;99.90;;;9.06;100.00;98039.47;5015356;28;20525;-79
2022/11/05 01:39:00;;;;;;;1.87;1.77;;;8.30;99.90;;;9.06;100.00;98048.09;5016389;28;20909;-82
2022/11/05 01:41:29;;;;;;;11.53;2.00;;;8.40;99.90;;;9.03;100.00;98045.84;5017949;28;20458;-79
2022/11/05 01:43:59;;;;;;;26.37;2.63;;;8.30;99.90;;;9.05;100.00;98040.47;5015058;28;20554;-79
2022/11/05 01:46:34;;;;;;;3.20;1.70;;;8.30;99.90;;;9.05;100.00;98038.69;5015433;28;20508;-79
2022/11/05 01:49:14;;;;;;;8.90;1.70;;;8.30;99.90;;;9.01;100.00;98037.41;5016733;28;20462;-79
2022/11/05 01:51:48;;;;;;;2.70;1.87;;;8.20;99.90;;;8.98;100.00;98036.97;5018944;28;20495;-79
2022/11/05 01:54:23;;;;;;;3.20;2.33;;;8.20;99.90;;;8.97;100.00;98043.97;5015796;28;20554;-79
2022/11/05 01:56:58;;;;;;;2.70;1.80;;;8.20;99.90;;;9.00;100.00;98040.19;5015974;28;20474;-78
2022/11/05 01:59:32;;;;;;;4.23;2.07;;;8.20;99.90;;;8.96;100.00;98044.94;5016934;28;20497;-79
2022/11/05 02:02:03;;;;;;;2.40;1.93;;;8.30;99.90;;;8.96;100.00;98044.13;5017489;28;20557;-79
2022/11/05 02:04:42;;;;;;;5.63;2.03;;;8.30;99.90;;;8.94;100.00;98036.50;5018451;28;20561;-79
2022/11/05 02:07:11;;;;;;;4.87;2.17;;;8.20;99.90;;;8.93;100.00;98049.69;5016980;28;20455;-79
2022/11/05 02:09:49;;;;;;;4.73;2.20;;;8.20;99.90;;;8.91;100.00;98046.47;5017224;28;21960;-79
2022/11/05 02:12:20;;;;;;;3.07;2.10;;;8.20;99.90;;;8.91;100.00;98057.72;5016118;28;20537;-78
2022/11/05 02:14:49;;;;;;;3.90;2.10;;;8.20;99.90;;;8.89;100.00;98062.28;5015389;28;20487;-79
2022/11/05 02:17:33;;;;;;;3.23;2.10;;;8.20;99.90;;;8.90;100.00;98068.31;5016355;28;20473;-79
2022/11/05 02:20:25;;;;;;;2.20;1.60;;;8.30;99.90;;;8.92;100.00;98072.34;5017153;28;20525;-79
2022/11/05 02:23:56;;;;;;;4.27;2.20;;;8.20;99.90;;;8.91;100.00;98075.16;5016630;28;20597;-79
2022/11/05 02:27:01;;;;;;;2.43;2.23;;;8.20;99.90;;;8.89;100.00;98077.09;5015998;28;20590;-79
2022/11/05 02:30:11;;;;;;;2.20;2.00;;;8.20;99.90;;;8.90;100.00;98076.13;5014328;28;20466;-78
2022/11/05 02:33:17;;;;;;;2.73;1.90;;;8.20;99.90;;;8.92;100.00;98076.78;5016110;28;20521;-79
2022/11/05 02:36:20;;;;;;;7.00;2.53;;;8.20;99.90;;;8.95;100.00;98081.66;5005547;28;20522;-79
2022/11/05 02:39:08;;;;;;;9.40;2.07;;;8.20;99.90;;;8.95;100.00;98074.63;5006357;28;20543;-79
2022/11/05 02:41:52;;;;;;;4.53;2.10;;;8.20;99.90;;;8.94;100.00;98075.63;5015780;28;20509;-79
2022/11/05 02:44:34;;;;;;;3.40;1.87;;;8.30;99.90;;;8.95;100.00;98073.81;5017015;28;20545;-79
2022/11/05 02:47:15;;;;;;;7.13;2.60;;;8.40;99.90;;;8.94;100.00;98077.41;5016108;28;20956;-79
2022/11/05 02:49:57;;;;;;;11.53;2.83;;;8.20;99.90;;;8.90;100.00;98089.16;5014689;28;20458;-79
2022/11/05 02:52:37;;;;;;;3.77;2.67;;;8.20;99.90;;;8.90;100.00;98091.78;5016442;28;20552;-79
2022/11/05 02:55:16;;;;;;;6.80;3.10;;;8.20;99.90;;;8.88;100.00;98093.75;5015612;28;20467;-79
2022/11/05 02:57:47;;;;;;;3.30;2.60;;;8.20;99.90;;;8.86;100.00;98090.50;5014104;28;20554;-79
2022/11/05 03:00:50;;;;;;;4.33;2.63;;;8.20;99.90;;;8.87;100.00;98092.13;5016506;28;20557;-79
2022/11/05 03:03:27;;;;;;;3.43;2.03;;;8.20;99.90;;;8.87;100.00;98095.56;5016740;28;20467;-79
2022/11/05 03:06:46;;;;;;;6.63;2.50;;;8.20;99.90;;;8.81;100.00;98087.63;5017106;28;20460;-79
2022/11/05 03:10:05;;;;;;;3.80;2.70;;;8.20;99.90;;;8.79;100.00;98105.22;5009658;28;21025;-79
2022/11/05 03:12:47;;;;;;;4.00;2.80;;;8.10;99.90;;;8.80;100.00;98104.25;5020572;28;20926;-79
2022/11/05 03:15:27;;;;;;;3.30;2.00;;;8.10;99.90;;;8.80;100.00;98106.84;5018259;28;20459;-79
2022/11/05 03:18:11;;;;;;;5.23;2.00;;;8.00;99.90;;;8.80;100.00;98114.66;5018828;28;20493;-79
2022/11/05 03:20:47;;;;;;;7.07;2.07;;;8.00;99.90;;;8.79;100.00;98116.47;5021071;28;20829;-79
2022/11/05 03:23:28;;;;;;;4.10;2.40;;;8.00;99.90;;;8.74;100.00;98115.38;5021183;28;20865;-79
2022/11/05 03:26:08;;;;;;;4.00;1.90;;;7.90;99.90;;;8.71;100.00;98115.72;5019546;28;20512;-79
2022/11/05 03:28:41;;;;;;;5.10;2.30;;;7.90;99.90;;;8.68;100.00;98116.84;5019697;28;20478;-79
2022/11/05 03:31:14;;;;;;;3.00;1.80;;;7.90;99.90;;;8.69;100.00;98118.50;5021130;28;20475;-79
2022/11/05 03:33:46;;;;;;;3.10;2.30;;;7.90;99.90;;;8.70;100.00;98121.91;5019123;28;20586;-78
2022/11/05 03:36:23;;;;;;;7.30;2.60;;;8.00;99.90;;;8.72;100.00;98122.53;5018580;28;20522;-79
2022/11/05 03:38:56;;;;;;;4.67;2.07;;;8.00;99.90;;;8.73;100.00;98132.81;5019957;28;20999;-78
2022/11/05 03:41:28;;;;;;;5.10;2.20;;;8.10;99.90;;;8.75;100.00;98124.78;5021205;28;20473;-78
2022/11/05 03:44:06;;;;;;;3.13;2.07;;;8.00;99.90;;;8.76;100.00;98131.63;5020705;28;20486;-78
2022/11/05 03:46:41;;;;;;;4.67;2.30;;;8.10;99.90;;;8.76;100.00;98131.63;5018543;28;20446;-79
2022/11/05 03:49:18;;;;;;;6.13;2.63;;;8.10;99.90;;;8.76;100.00;98132.47;5021474;28;20531;-79
2022/11/05 03:51:55;;;;;;;3.57;2.10;;;8.00;99.90;;;8.78;100.00;98134.91;5017667;28;20562;-79
2022/11/05 03:54:25;;;;;;;1.90;1.80;;;8.10;99.90;;;8.79;100.00;98136.50;5019344;28;20563;-79
2022/11/05 03:57:04;;;;;;;3.20;2.00;;;8.10;99.90;;;8.79;100.00;98131.28;5020080;28;20539;-78
2022/11/05 03:59:42;;;;;;;2.87;2.20;;;8.10;99.90;;;8.78;100.00;98130.47;5017924;28;21066;-79
2022/11/05 04:02:13;;;;;;;2.27;1.80;;;8.10;99.90;;;8.79;100.00;98136.50;5021916;28;20494;-78
2022/11/05 04:04:43;;;;;;;3.33;3.03;;;8.10;99.90;;;8.79;100.00;98133.91;5019922;28;20475;-79
2022/11/05 04:17:05;;;;;;;5.20;2.47;;;8.00;99.90;;;8.66;100.00;98136.28;5019958;28;20553;-78
2022/11/05 04:18:22;;;;;;;16.00;2.40;;;8.00;99.90;;;8.64;100.00;98133.03;5014497;28;20474;-81
2022/11/05 04:26:24;;;;;;;3.00;2.70;;;7.80;99.90;;;8.51;100.00;98144.00;5019832;28;20478;-79
2022/11/05 04:31:42;;;;;;;4.97;2.43;;;7.70;99.90;;;8.47;100.00;98146.13;5017091;28;20846;-78
2022/11/05 04:34:11;;;;;;;3.23;2.57;;;7.70;99.90;;;8.38;100.00;98149.78;5018260;28;20576;-79
2022/11/05 04:36:40;;;;;;;13.57;7.33;;;7.60;99.90;;;8.35;100.00;98149.31;5016582;28;20486;-79
2022/11/05 04:39:08;;;;;;;7.70;3.20;;;7.70;99.90;;;8.33;100.00;98156.50;5017157;28;20941;-79
2022/11/05 04:41:38;;;;;;;5.10;2.70;;;7.70;99.90;;;8.29;100.00;98155.22;5019662;28;20640;-78
2022/11/05 04:44:07;;;;;;;3.83;2.37;;;7.50;99.90;;;8.26;100.00;98160.72;5016198;28;20485;-78
2022/11/05 04:46:36;;;;;;;3.27;2.97;;;7.50;99.90;;;8.20;100.00;98164.00;5019143;28;20462;-78
2022/11/05 04:49:05;;;;;;;3.27;2.70;;;7.40;99.90;;;8.15;100.00;98166.31;5019111;28;20495;-78
2022/11/05 04:51:34;;;;;;;5.73;2.87;;;7.40;99.90;;;8.13;100.00;98160.44;5019460;28;20789;-78
2022/11/05 04:54:02;;;;;;;11.73;3.43;;;7.40;99.90;;;8.09;100.00;98170.38;5019586;28;20500;-78
2022/11/05 04:56:32;;;;;;;4.77;2.90;;;7.30;99.90;;;8.07;100.00;98164.53;5019504;28;20446;-78
2022/11/05 04:59:02;;;;;;;2.90;2.33;;;7.30;99.90;;;8.05;100.00;98156.88;5018104;28;21218;-78
2022/11/05 05:01:31;;;;;;;7.87;2.63;;;7.20;99.90;;;8.00;100.00;98156.59;5017727;28;20483;-78
2022/11/05 05:04:00;;;;;;;6.20;3.00;;;7.20;99.90;;;7.99;100.00;98161.94;5018934;28;20473;-78
2022/11/05 05:06:28;;;;;;;5.60;3.27;;;7.20;99.90;;;7.95;100.00;98173.66;5017573;28;21003;-78
2022/11/05 05:08:58;;;;;;;3.43;2.70;;;7.10;99.90;;;7.91;100.00;98175.00;5015767;28;20552;-78
2022/11/05 05:11:27;;;;;;;3.50;2.40;;;7.00;99.90;;;7.89;100.00;98187.38;5018049;28;20850;-79
2022/11/05 05:13:56;;;;;;;6.93;3.67;;;7.00;99.90;;;7.84;100.00;98187.06;5015389;28;20618;-79
2022/11/05 05:16:28;;;;;;;5.63;2.57;;;7.00;99.90;;;7.80;100.00;98189.19;5020974;28;20524;-79
2022/11/05 05:18:57;;;;;;;5.63;3.00;;;6.90;99.90;;;7.75;100.00;98198.44;5019518;28;20469;-79
2022/11/05 05:21:37;;;;;;;7.30;3.50;;;6.90;99.90;;;7.71;100.00;98197.16;5018065;28;20516;-79
2022/11/05 05:24:09;;;;;;;8.37;4.07;;;6.90;99.90;;;7.74;100.00;98202.84;5018138;28;20500;-78
2022/11/05 05:26:41;;;;;;;8.93;2.90;;;7.00;99.90;;;7.73;100.00;98201.25;5015745;28;20777;-78
2022/11/05 05:29:11;;;;;;;16.60;7.97;;;6.90;99.90;;;7.69;100.00;98204.31;5018440;28;20455;-78
2022/11/05 05:31:42;;;;;;;5.37;2.90;;;6.90;99.90;;;7.71;100.00;98210.16;5015182;28;21194;-78
2022/11/05 05:34:14;;;;;;;3.93;2.90;;;6.90;99.90;;;7.71;100.00;98210.16;5019680;28;20486;-78
2022/11/05 05:36:43;;;;;;;9.53;3.50;;;6.90;99.90;;;7.72;100.00;98209.19;5017984;28;20451;-81
2022/11/05 05:39:13;;;;;;;7.73;3.57;;;6.90;99.90;;;7.60;100.00;98214.72;5017472;28;20494;-81
2022/11/05 05:41:41;;;;;;;8.20;3.30;;;6.70;99.90;;;7.51;100.00;98212.31;5017253;28;20499;-81
2022/11/05 05:44:10;;;;;;;5.30;3.33;;;6.60;99.90;;;7.48;100.00;98218.66;5017783;28;20830;-81
2022/11/05 05:46:40;;;;;;;4.93;2.70;;;6.60;99.90;;;7.38;100.00;98220.63;5018847;28;20498;-80
2022/11/05 05:49:12;;;;;;;4.90;3.47;;;6.50;99.90;;;7.37;100.00;98225.97;5018289;28;20470;-81
2022/11/05 05:51:41;;;;;;;5.43;3.50;;;6.50;99.90;;;7.37;100.00;98237.19;5016821;28;20965;-81
2022/11/05 05:54:12;;;;;;;8.77;4.40;;;6.50;99.90;;;7.40;100.00;98236.84;5017567;28;20486;-81
2022/11/05 05:56:42;;;;;;;86.07;7.00;;;6.50;99.90;;;7.45;100.00;98233.78;5018277;28;20437;-81
2022/11/05 05:59:12;;;;;;;91.13;6.20;;;6.60;99.90;;;7.50;100.00;98239.28;5018904;28;20469;-80
2022/11/05 06:01:43;;;;;;;79.57;5.17;;;6.60;99.90;;;7.46;100.00;98235.41;5019094;28;20506;-81
2022/11/05 06:04:13;;;;;;;45.23;4.87;;;6.60;99.90;;;7.34;100.00;98239.28;5014725;28;20506;-81
2022/11/05 06:06:41;;;;;;;35.90;4.77;;;6.50;99.90;;;7.32;100.00;98249.88;5018904;28;20942;-80
2022/11/05 06:09:10;;;;;;;32.77;3.63;;;6.60;99.90;;;7.25;100.00;98253.28;5017832;28;20816;-81
2022/11/05 06:11:38;;;;;;;4.43;2.90;;;6.40;99.90;;;7.19;100.00;98259.91;5018126;28;20493;-80
2022/11/05 06:14:10;;;;;;;8.17;3.67;;;6.30;99.90;;;7.23;100.00;98261.22;5020118;28;21052;-80
2022/11/05 06:16:40;;;;;;;64.60;4.80;;;6.30;99.90;;;7.21;100.00;98258.00;5018960;28;20778;-81
2022/11/05 06:19:10;;;;;;;57.23;4.70;;;6.30;99.90;;;7.11;100.00;98262.53;5020670;28;20450;-81
2022/11/05 06:21:39;;;;;;;49.20;4.63;;;6.20;99.90;;;7.06;100.00;98269.97;5019472;28;20482;-81
2022/11/05 06:24:10;;;;;;;56.33;4.80;;;6.10;99.90;;;7.05;100.00;98273.53;5019888;28;20454;-80
2022/11/05 06:26:41;;;;;;;63.47;3.87;;;6.20;99.90;;;7.11;100.00;98269.50;5019617;28;20481;-81
2022/11/05 06:29:10;;;;;;;47.47;4.30;;;6.20;99.90;;;7.15;100.00;98271.59;5020104;28;20447;-81
2022/11/05 06:31:39;;;;;;;64.93;4.73;;;6.30;99.90;;;7.17;100.00;98269.69;5018005;28;21002;-81
2022/11/05 06:34:09;;;;;;;31.47;4.20;;;6.30;99.90;;;7.11;100.00;98266.91;5019001;28;20451;-81
2022/11/05 06:36:37;;;;;;;32.23;3.50;;;6.20;99.90;;;7.08;100.00;98270.63;5017745;28;20957;-81
2022/11/05 06:39:10;;;;;;;41.03;4.03;;;6.20;99.90;;;7.08;100.00;98281.84;5018624;28;20481;-81
2022/11/05 06:41:39;;;;;;;19.93;3.80;;;6.20;99.90;;;7.03;100.00;98288.50;5024737;28;20447;-81
2022/11/05 06:44:28;;;;;;;13.63;3.33;;;6.10;99.90;;;6.83;100.00;98279.34;5023613;28;21324;-81
2022/11/05 06:46:56;;;;;;;15.80;2.77;;;5.90;99.90;;;6.74;100.00;98294.06;5023835;28;20946;-81
2022/11/05 06:49:27;;;;;;;24.63;4.13;;;5.80;99.90;;;6.75;100.00;98297.50;5020413;28;21029;-81
2022/11/05 06:51:57;;;;;;;20.80;3.00;;;5.80;99.90;;;6.76;100.00;98297.34;5023318;28;20782;-81
2022/11/05 06:54:26;;;;;;;36.37;3.50;;;5.90;99.90;;;6.74;100.00;98295.84;5021375;28;20964;-81
2022/11/05 06:56:55;;;;;;;32.07;3.97;;;5.80;99.90;;;6.65;100.00;98302.00;5022064;28;20446;-81
2022/11/05 06:59:24;;;;;;;26.23;3.73;;;5.80;99.90;;;6.67;100.00;98305.25;5024428;28;20473;-81
2022/11/05 07:01:53;;;;;;;35.70;3.40;;;5.70;99.90;;;6.71;100.00;98309.16;5022911;28;20486;-81
2022/11/05 07:04:21;;;;;;;42.67;3.63;;;5.80;99.90;;;6.68;100.00;98312.06;5023837;28;20457;-80
2022/11/05 07:06:51;;;;;;;7.97;3.50;;;5.70;99.90;;;6.69;100.00;98316.31;5021500;28;20520;-81
2022/11/05 07:09:20;;;;;;;12.43;3.43;;;5.70;99.90;;;6.70;100.00;98320.56;5022368;28;20442;-80
2022/11/05 07:11:50;;;;;;;24.37;4.20;;;5.80;99.90;;;6.67;100.00;98319.06;5021947;28;20453;-80
2022/11/05 07:14:18;;;;;;;11.80;3.23;;;5.70;99.90;;;6.66;100.00;98324.44;5021632;28;20486;-80
2022/11/05 07:16:47;;;;;;;8.73;3.00;;;5.70;99.90;;;6.70;100.00;98330.94;5021443;28;20446;-81
2022/11/05 07:19:15;;;;;;;49.07;4.80;;;5.80;99.90;;;6.66;100.00;98337.41;5021696;28;20530;-81
2022/11/05 07:21:44;;;;;;;28.90;3.70;;;5.70;99.90;;;6.64;100.00;98332.34;5023220;28;20461;-80
2022/11/05 07:24:15;;;;;;;80.50;4.90;;;5.70;99.90;;;6.60;100.00;98351.81;5023270;28;20457;-81
2022/11/05 07:26:44;;;;;;;64.87;10.93;;;5.80;99.90;;;6.62;100.00;98349.09;5022432;28;20504;-80
2022/11/05 07:29:13;;;;;;;35.70;3.30;;;5.70;99.90;;;6.58;100.00;98353.78;5021689;28;20479;-80
2022/11/05 07:31:42;;;;;;;10.93;3.30;;;5.70;99.90;;;6.67;100.00;98358.03;5023424;28;20457;-81
2022/11/05 07:34:11;;;;;;;30.30;4.27;;;5.70;99.90;;;6.68;100.00;98364.88;5021744;28;20450;-80
2022/11/05 07:36:40;;;;;;;12.30;3.53;;;5.70;99.90;;;6.68;100.00;98366.66;5020460;28;20505;-81
2022/11/05 07:39:09;;;;;;;71.47;5.33;;;5.70;99.90;;;6.72;100.00;98365.38;5023281;28;20469;-81
2022/11/05 07:41:40;;;;;;;29.97;4.70;;;5.80;99.90;;;6.75;100.00;98370.25;5020283;28;20882;-81
2022/11/05 07:44:08;;;;;;;28.53;4.33;;;5.90;99.90;;;6.69;100.00;98370.88;5020902;28;20458;-81
2022/11/05 07:46:37;;;;;;;19.73;4.10;;;5.80;99.90;;;6.57;100.00;98372.91;5020230;28;20517;-80
2022/11/05 07:49:05;;;;;;;18.93;3.87;;;5.70;99.90;;;6.56;100.00;98372.09;5019583;28;20572;-81
2022/11/05 07:51:34;;;;;;;13.73;4.20;;;5.70;99.90;;;6.61;100.00;98383.81;5019397;28;20555;-80
2022/11/05 07:54:03;;;;;;;45.87;4.60;;;5.70;99.90;;;6.62;100.00;98385.47;5020944;28;20522;-81
2022/11/05 07:56:32;;;;;;;9.90;3.40;;;5.80;99.90;;;6.63;100.00;98387.09;5022621;28;20497;-81
2022/11/05 07:59:02;;;;;;;27.13;4.17;;;5.90;99.90;;;6.66;100.00;98391.97;5022904;28;20505;-81
2022/11/05 08:01:31;;;;;;;14.13;3.67;;;5.90;99.90;;;6.68;100.00;98395.22;5022117;28;20510;-81
2022/11/05 08:04:00;;;;;;;41.50;4.10;;;5.80;99.90;;;6.75;100.00;98393.66;5021364;28;20460;-82
2022/11/05 08:06:28;;;;;;;19.67;3.93;;;5.90;99.90;;;6.73;100.00;98398.19;5023523;28;20459;-81
2022/11/05 08:08:57;;;;;;;16.27;3.90;;;5.90;99.90;;;6.67;100.00;98393.59;5022280;28;20522;-81
2022/11/05 08:11:25;;;;;;;18.90;4.23;;;5.80;99.90;;;6.66;100.00;98399.78;5019667;28;20446;-81
2022/11/05 08:13:54;;;;;;;6.13;3.60;;;5.80;99.90;;;6.69;100.00;98402.06;5019328;28;20494;-81
2022/11/05 08:16:26;;;;;;;5.73;3.20;;;5.80;99.90;;;6.75;100.00;98393.66;5018680;28;20526;-81
2022/11/05 08:18:55;;;;;;;5.83;3.70;;;5.90;99.90;;;6.76;100.00;98397.88;5020209;28;20526;-81
2022/11/05 08:21:24;;;;;;;20.77;4.37;;;5.90;99.90;;;6.81;100.00;98395.63;5019802;28;20555;-81
2022/11/05 08:23:52;;;;;;;7.47;4.20;;;6.00;99.90;;;6.87;100.00;98405.41;5021478;28;20451;-80
2022/11/05 08:26:21;;;;;;;6.07;3.80;;;6.00;99.90;;;6.88;100.00;98407.03;5019954;28;20589;-81
2022/11/05 08:28:50;;;;;;;4.00;3.17;;;6.00;99.90;;;6.95;100.00;98408.03;5019945;28;20449;-80
2022/11/05 08:31:18;;;;;;;10.30;3.67;;;6.10;99.90;;;6.96;100.00;98399.28;5019426;28;20938;-80
2022/11/05 08:33:48;;;;;;;5.60;3.23;;;6.10;99.90;;;6.93;100.00;98402.19;5018772;28;20497;-80
2022/11/05 08:36:17;;;;;;;5.73;3.43;;;6.10;99.90;;;6.99;100.00;98404.16;5019165;28;20588;-80
2022/11/05 08:38:46;;;;;;;4.97;3.33;;;6.20;99.90;;;6.97;100.00;98396.53;5018929;28;20450;-80
2022/11/05 08:41:15;;;;;;;8.20;3.70;;;6.10;99.90;;;7.01;100.00;98389.25;5018603;28;20457;-80
2022/11/05 08:43:43;;;;;;;3.93;3.20;;;6.20;99.90;;;7.01;100.00;98391.84;5019152;28;20541;-81
2022/11/05 08:46:12;;;;;;;4.80;3.80;;;6.20;99.90;;;7.05;100.00;98390.53;5017978;28;20451;-80
2022/11/05 08:48:41;;;;;;;13.60;3.97;;;6.20;99.90;;;6.98;100.00;98392.13;5019530;28;20457;-80
2022/11/05 08:51:11;;;;;;;4.60;3.90;;;6.20;99.90;;;6.97;100.00;98390.53;5019506;28;20544;-80
2022/11/05 08:53:39;;;;;;;10.70;4.17;;;6.20;99.90;;;6.98;100.00;98403.34;5021626;28;20450;-80
2022/11/05 08:56:08;;;;;;;5.50;3.47;;;6.20;99.90;;;7.04;100.00;98402.75;5020985;28;20500;-80
2022/11/05 08:58:37;;;;;;;4.73;3.23;;;6.20;99.90;;;7.05;100.00;98400.94;5020978;28;20538;-80
2022/11/05 09:01:06;;;;;;;7.17;3.30;;;6.20;99.90;;;6.99;100.00;98410.19;5021032;28;21080;-80
2022/11/05 09:03:35;;;;;;;7.00;3.73;;;6.20;99.90;;;7.03;100.00;98410.69;5022110;28;20546;-80
2022/11/05 09:06:04;;;;;;;7.60;4.30;;;6.30;99.90;;;7.05;100.00;98408.72;5021125;28;20938;-80
2022/11/05 09:08:35;;;;;;;4.80;3.60;;;6.30;99.90;;;7.09;100.00;98410.06;5018879;28;20516;-80
2022/11/05 09:11:03;;;;;;;10.60;3.87;;;6.30;99.90;;;7.13;100.00;98408.78;5020948;28;20480;-80
2022/11/05 09:13:33;;;;;;;4.80;4.10;;;6.30;99.90;;;7.20;100.00;98412.38;5019861;28;20488;-81
2022/11/05 09:16:02;;;;;;;10.30;4.00;;;6.50;99.90;;;7.28;100.00;98411.59;5021054;28;20525;-80
2022/11/05 09:18:31;;;;;;;9.40;5.00;;;6.50;99.90;;;7.41;100.00;98414.56;5017642;28;20478;-80
2022/11/05 09:21:00;;;;;;;5.53;4.33;;;6.70;99.90;;;7.49;100.00;98414.59;5020007;28;20450;-80
2022/11/05 09:23:29;;;;;;;6.07;4.70;;;6.80;99.90;;;7.57;100.00;98420.63;5019683;28;20497;-80
2022/11/05 09:25:59;;;;;;;6.97;4.33;;;6.90;99.90;;;7.64;100.00;98420.81;5018751;28;20454;-80
2022/11/05 09:28:29;;;;;;;7.40;5.10;;;7.00;99.90;;;7.72;100.00;98426.03;5017286;28;20490;-80
2022/11/05 09:30:58;;;;;;;8.40;5.90;;;7.10;99.90;;;7.82;100.00;98423.28;5018885;28;20455;-80
2022/11/05 09:33:27;;;;;;;9.73;5.30;;;7.20;99.90;;;7.91;100.00;98424.94;5018863;28;20463;-81
2022/11/05 09:36:00;;;;;;;7.67;5.50;;;7.30;99.90;;;8.00;100.00;98424.78;5019337;28;20521;-80
2022/11/05 09:38:29;;;;;;;11.37;5.70;;;7.40;99.90;;;8.08;100.00;98434.41;5020435;28;20442;-80
2022/11/05 09:41:04;;;;;;;11.80;5.93;;;7.50;99.90;;;8.15;100.00;98438.00;5019003;28;20505;-80
2022/11/05 09:43:40;;;;;;;8.27;5.00;;;7.50;99.90;;;8.23;100.00;98437.16;5018451;28;20457;-81
2022/11/05 09:46:17;;;;;;;10.47;5.27;;;7.60;99.90;;;8.31;100.00;98448.44;5017306;28;20481;-80
2022/11/05 09:48:52;;;;;;;8.50;5.07;;;7.70;99.90;;;8.38;100.00;98446.81;5020299;28;20486;-80
2022/11/05 09:51:22;;;;;;;10.87;5.00;;;7.80;99.90;;;8.45;100.00;98445.19;5018161;28;20435;-80
2022/11/05 09:53:52;;;;;;;6.30;4.37;;;7.90;99.90;;;8.53;100.00;98453.00;5015912;28;20439;-80
2022/11/05 09:56:27;;;;;;;6.20;4.60;;;8.00;99.90;;;8.61;100.00;98453.97;5015314;28;20577;-80
2022/11/05 09:59:02;;;;;;;7.77;5.47;;;8.00;99.90;;;8.69;100.00;98453.94;5017097;28;20945;-81
2022/11/05 10:01:36;;;;;;;5.50;4.03;;;8.10;99.90;;;8.75;100.00;98451.50;5016477;28;20551;-81
2022/11/05 10:04:16;;;;;;;10.30;4.73;;;8.20;99.90;;;8.82;100.00;98454.25;5018266;28;20960;-81
2022/11/05 10:06:51;;;;;;;11.23;3.90;;;8.30;99.90;;;8.87;100.00;98459.81;5016831;28;20459;-81
2022/11/05 10:09:26;;;;;;;6.67;4.80;;;8.30;99.90;;;8.93;100.00;98464.34;5016674;28;21016;-81
2022/11/05 10:12:07;;;;;;;9.53;3.93;;;8.40;99.90;;;8.96;100.00;98459.59;5018369;28;20545;-81
2022/11/05 10:14:43;;;;;;;11.70;4.70;;;8.40;99.90;;;8.98;100.00;98451.63;5015539;28;20566;-81
2022/11/05 10:17:23;;;;;;;6.47;3.47;;;8.40;99.90;;;9.02;100.00;98453.72;5017675;28;20919;-81
2022/11/05 10:19:59;;;;;;;11.10;4.00;;;8.50;99.90;;;9.06;100.00;98457.63;5016045;28;20519;-81
2022/11/05 10:22:28;;;;;;;4.90;3.17;;;8.50;99.90;;;9.13;100.00;98457.78;5017667;28;20450;-81
2022/11/05 10:24:57;;;;;;;6.90;3.43;;;8.60;99.90;;;9.16;100.00;98456.66;5017998;28;20486;-81
2022/11/05 10:27:35;;;;;;;7.03;3.83;;;8.70;99.90;;;9.20;100.00;98461.34;5015277;28;20504;-81
2022/11/05 10:30:05;;;;;;;5.53;3.20;;;8.70;99.90;;;9.23;100.00;98468.03;5016398;28;20525;-81
2022/11/05 10:32:42;;;;;;;7.23;3.57;;;8.70;99.90;;;9.28;100.00;98466.53;5016557;28;21219;-81
2022/11/05 10:35:17;;;;;;;10.03;3.43;;;8.80;99.90;;;9.36;100.00;98461.31;5016583;28;20818;-81
2022/11/05 10:37:46;;;;;;;9.83;3.70;;;8.90;99.90;;;9.41;100.00;98466.81;5017380;28;20566;-81
2022/11/05 10:40:29;;;;;;;9.90;3.87;;;8.90;99.90;;;9.43;100.00;98462.25;5019271;28;20934;-81
2022/11/05 10:43:06;;;;;;;5.03;3.60;;;9.00;99.90;;;9.46;100.00;98467.13;5016954;28;20481;-81
2022/11/05 10:45:49;;;;;;;7.33;4.27;;;9.00;99.90;;;9.46;100.00;98456.69;5018455;28;20558;-81
2022/11/05 10:48:55;;;;;;;11.60;4.40;;;9.00;99.90;;;9.50;100.00;98460.59;5018138;28;20985;-81
2022/11/05 10:51:24;;;;;;;7.20;3.70;;;9.00;99.90;;;9.58;100.00;98460.53;5018790;28;20481;-81
2022/11/05 10:53:57;;;;;;;9.13;4.50;;;9.10;99.90;;;9.64;100.00;98466.06;5018547;28;20446;-81
2022/11/05 10:56:35;;;;;;;6.67;3.77;;;9.10;99.90;;;9.67;100.00;98468.34;5018176;28;20458;-80
2022/11/05 10:59:20;;;;;;;7.63;4.63;;;9.20;99.90;;;9.70;100.00;98468.00;5019311;28;20530;-81
2022/11/05 11:01:58;;;;;;;11.60;4.27;;;9.20;99.90;;;9.67;100.00;98465.72;5020222;28;20492;-81
2022/11/05 11:04:29;;;;;;;5.53;4.00;;;9.20;99.90;;;9.69;100.00;98472.41;5017154;28;20553;-81
2022/11/05 11:07:05;;;;;;;6.80;3.73;;;9.20;99.90;;;9.67;100.00;98463.13;5019670;28;20453;-81
2022/11/05 11:09:36;;;;;;;4.30;3.40;;;9.10;99.90;;;9.70;100.00;98466.19;5018324;28;20521;-80
2022/11/05 11:12:15;;;;;;;9.70;3.13;;;9.20;99.90;;;9.67;100.00;98469.16;5018386;28;20458;-81
2022/11/05 11:15:01;;;;;;;6.57;2.90;;;9.10;99.90;;;9.67;100.00;98463.13;5020067;28;20467;-81
2022/11/05 11:17:32;;;;;;;5.90;2.70;;;9.10;99.90;;;9.68;100.00;98464.75;5017711;28;20498;-81
2022/11/05 11:20:24;;;;;;;7.87;3.50;;;9.20;99.90;;;9.67;100.00;98460.50;5016565;28;20558;-81
2022/11/05 11:23:15;;;;;;;5.30;2.97;;;9.10;99.90;;;9.65;100.00;98457.28;5018703;28;20818;-81
2022/11/05 11:25:51;;;;;;;4.10;2.70;;;9.10;99.90;;;9.59;100.00;98464.78;5014144;28;21030;-81
2022/11/05 11:28:28;;;;;;;5.30;2.77;;;9.00;99.90;;;9.66;100.00;98458.88;5020053;28;20893;-81
2022/11/05 11:31:09;;;;;;;9.17;2.83;;;9.10;99.90;;;9.69;100.00;98461.13;5021791;28;20454;-81